sensor_id;sensor_type;location;lat;lon;timestamp;P1;durP1;ratioP1;P2;durP2;ratioP2
51529;SDS011;37613;51.788;21.582;2023-05-07T02:58:51;3.10;;;2.60;;
51529;SDS011;37613;51.788;21.582;2023-05-07T04:09:59;8.20;;;2.80;;
51529;SDS011;37613;51.788;21.582;2023-05-07T04:14:56;4.00;;;2.20;;
51529;SDS011;37613;51.788;21.582;2023-05-07T04:19:41;5.50;;;2.70;;
51529;SDS011;37613;51.788;21.582;2023-05-07T04:24:50;5.10;;;3.10;;
51529;SDS011;37613;51.788;21.582;2023-05-07T04:29:00;2.20;;;1.90;;
51529;SDS011;37613;51.788;21.582;2023-05-07T04:34:33;1.60;;;1.50;;
51529;SDS011;37613;51.788;21.582;2023-05-07T04:38:47;3.90;;;2.90;;
51529;SDS011;37613;51.788;21.582;2023-05-07T04:43:32;3.60;;;2.00;;
51529;SDS011;37613;51.788;21.582;2023-05-07T04:48:20;2.40;;;2.00;;
51529;SDS011;37613;51.788;21.582;2023-05-07T05:02:19;5.00;;;2.40;;
51529;SDS011;37613;51.788;21.582;2023-05-07T05:07:24;1.80;;;1.40;;
51529;SDS011;37613;51.788;21.582;2023-05-07T05:16:26;3.50;;;2.00;;
51529;SDS011;37613;51.788;21.582;2023-05-07T05:29:38;13.50;;;5.60;;
51529;SDS011;37613;51.788;21.582;2023-05-07T06:09:02;6.00;;;3.20;;
51529;SDS011;37613;51.788;21.582;2023-05-07T06:13:41;7.10;;;3.10;;
51529;SDS011;37613;51.788;21.582;2023-05-07T06:17:49;8.60;;;3.90;;
51529;SDS011;37613;51.788;21.582;2023-05-07T06:22:27;14.60;;;5.30;;
51529;SDS011;37613;51.788;21.582;2023-05-07T06:35:33;14.50;;;5.60;;
51529;SDS011;37613;51.788;21.582;2023-05-07T06:40:08;5.70;;;3.90;;
51529;SDS011;37613;51.788;21.582;2023-05-07T06:49:02;6.50;;;2.80;;
51529;SDS011;37613;51.788;21.582;2023-05-07T06:53:59;12.60;;;4.10;;
51529;SDS011;37613;51.788;21.582;2023-05-07T06:58:45;7.00;;;3.20;;
51529;SDS011;37613;51.788;21.582;2023-05-07T07:03:07;18.90;;;7.50;;
51529;SDS011;37613;51.788;21.582;2023-05-07T07:16:08;13.50;;;7.20;;
51529;SDS011;37613;51.788;21.582;2023-05-07T07:24:45;14.30;;;9.80;;
51529;SDS011;37613;51.788;21.582;2023-05-07T07:33:31;8.00;;;4.60;;
51529;SDS011;37613;51.788;21.582;2023-05-07T07:37:51;7.40;;;4.90;;
51529;SDS011;37613;51.788;21.582;2023-05-07T07:42:45;12.20;;;6.30;;
51529;SDS011;37613;51.788;21.582;2023-05-07T07:51:54;10.90;;;5.30;;
51529;SDS011;37613;51.788;21.582;2023-05-07T08:10:30;10.10;;;5.40;;
51529;SDS011;37613;51.788;21.582;2023-05-07T08:15:46;8.00;;;4.70;;
51529;SDS011;37613;51.788;21.582;2023-05-07T08:38:36;7.90;;;4.60;;
51529;SDS011;37613;51.788;21.582;2023-05-07T08:47:20;6.40;;;4.40;;
51529;SDS011;37613;51.788;21.582;2023-05-07T09:09:52;11.80;;;5.80;;
51529;SDS011;37613;51.788;21.582;2023-05-07T09:32:15;8.70;;;5.20;;
51529;SDS011;37613;51.788;21.582;2023-05-07T09:36:45;14.70;;;8.70;;
51529;SDS011;37613;51.788;21.582;2023-05-07T10:17:45;8.90;;;3.80;;
51529;SDS011;37613;51.788;21.582;2023-05-07T10:26:38;11.40;;;5.80;;
51529;SDS011;37613;51.788;21.582;2023-05-07T11:08:06;19.30;;;10.00;;
51529;SDS011;37613;51.788;21.582;2023-05-07T11:12:19;16.60;;;8.90;;
51529;SDS011;37613;51.788;21.582;2023-05-07T11:16:40;14.40;;;9.50;;
51529;SDS011;37613;51.788;21.582;2023-05-07T11:21:36;26.00;;;13.50;;
51529;SDS011;37613;51.788;21.582;2023-05-07T11:26:14;22.30;;;14.30;;
51529;SDS011;37613;51.788;21.582;2023-05-07T11:31:11;18.00;;;9.20;;
51529;SDS011;37613;51.788;21.582;2023-05-07T11:45:02;23.80;;;12.90;;
51529;SDS011;37613;51.788;21.582;2023-05-07T11:59:39;32.10;;;14.40;;
51529;SDS011;37613;51.788;21.582;2023-05-07T12:03:52;20.50;;;12.30;;
51529;SDS011;37613;51.788;21.582;2023-05-07T12:08:43;30.80;;;13.80;;
51529;SDS011;37613;51.788;21.582;2023-05-07T12:12:54;5.80;;;4.00;;
51529;SDS011;37613;51.788;21.582;2023-05-07T12:16:56;10.70;;;6.30;;
51529;SDS011;37613;51.788;21.582;2023-05-07T12:21:04;48.70;;;19.50;;
51529;SDS011;37613;51.788;21.582;2023-05-07T12:25:21;21.30;;;9.20;;
51529;SDS011;37613;51.788;21.582;2023-05-07T12:29:46;13.60;;;6.90;;
51529;SDS011;37613;51.788;21.582;2023-05-07T12:33:54;7.00;;;4.80;;
51529;SDS011;37613;51.788;21.582;2023-05-07T12:38:00;12.10;;;7.30;;
51529;SDS011;37613;51.788;21.582;2023-05-07T12:46:46;10.90;;;6.00;;
51529;SDS011;37613;51.788;21.582;2023-05-07T12:50:57;12.90;;;7.10;;
51529;SDS011;37613;51.788;21.582;2023-05-07T12:55:05;9.10;;;5.30;;
51529;SDS011;37613;51.788;21.582;2023-05-07T12:59:08;11.70;;;5.00;;
51529;SDS011;37613;51.788;21.582;2023-05-07T13:03:23;12.80;;;5.90;;
51529;SDS011;37613;51.788;21.582;2023-05-07T13:07:26;17.00;;;11.80;;
51529;SDS011;37613;51.788;21.582;2023-05-07T13:11:33;7.10;;;4.70;;
51529;SDS011;37613;51.788;21.582;2023-05-07T13:15:43;8.10;;;5.90;;
51529;SDS011;37613;51.788;21.582;2023-05-07T13:19:46;6.10;;;3.90;;
51529;SDS011;37613;51.788;21.582;2023-05-07T13:23:49;15.20;;;8.70;;
51529;SDS011;37613;51.788;21.582;2023-05-07T13:28:07;7.80;;;5.90;;
51529;SDS011;37613;51.788;21.582;2023-05-07T13:32:19;16.80;;;7.80;;
51529;SDS011;37613;51.788;21.582;2023-05-07T13:36:21;20.40;;;9.60;;
51529;SDS011;37613;51.788;21.582;2023-05-07T13:40:25;24.10;;;10.30;;
51529;SDS011;37613;51.788;21.582;2023-05-07T13:44:34;23.30;;;9.70;;
51529;SDS011;37613;51.788;21.582;2023-05-07T13:48:42;14.00;;;7.60;;
51529;SDS011;37613;51.788;21.582;2023-05-07T13:57:07;27.40;;;11.60;;
51529;SDS011;37613;51.788;21.582;2023-05-07T14:01:13;12.90;;;7.00;;
51529;SDS011;37613;51.788;21.582;2023-05-07T14:05:15;28.90;;;14.00;;
51529;SDS011;37613;51.788;21.582;2023-05-07T14:09:33;42.00;;;27.60;;
51529;SDS011;37613;51.788;21.582;2023-05-07T14:18:26;27.10;;;14.20;;
51529;SDS011;37613;51.788;21.582;2023-05-07T14:22:35;77.20;;;35.10;;
51529;SDS011;37613;51.788;21.582;2023-05-07T14:26:54;23.30;;;12.80;;
51529;SDS011;37613;51.788;21.582;2023-05-07T14:30:57;44.20;;;22.00;;
51529;SDS011;37613;51.788;21.582;2023-05-07T14:35:03;57.40;;;24.50;;
51529;SDS011;37613;51.788;21.582;2023-05-07T14:48:00;33.50;;;18.30;;
51529;SDS011;37613;51.788;21.582;2023-05-07T14:56:07;19.30;;;9.20;;
51529;SDS011;37613;51.788;21.582;2023-05-07T15:00:09;24.80;;;12.20;;
51529;SDS011;37613;51.788;21.582;2023-05-07T15:04:12;25.70;;;12.30;;
51529;SDS011;37613;51.788;21.582;2023-05-07T15:08:14;32.90;;;17.30;;
51529;SDS011;37613;51.788;21.582;2023-05-07T15:12:16;7.90;;;4.80;;
51529;SDS011;37613;51.788;21.582;2023-05-07T15:16:18;12.20;;;6.00;;
51529;SDS011;37613;51.788;21.582;2023-05-07T15:20:22;21.20;;;8.00;;
51529;SDS011;37613;51.788;21.582;2023-05-07T15:28:26;26.00;;;11.40;;
51529;SDS011;37613;51.788;21.582;2023-05-07T15:32:29;13.60;;;7.10;;
51529;SDS011;37613;51.788;21.582;2023-05-07T15:36:31;23.60;;;10.40;;
51529;SDS011;37613;51.788;21.582;2023-05-07T15:40:37;23.60;;;10.50;;
51529;SDS011;37613;51.788;21.582;2023-05-07T15:44:43;15.60;;;7.30;;
51529;SDS011;37613;51.788;21.582;2023-05-07T15:48:45;17.70;;;10.50;;
51529;SDS011;37613;51.788;21.582;2023-05-07T15:52:47;16.80;;;8.20;;
51529;SDS011;37613;51.788;21.582;2023-05-07T15:56:49;27.60;;;11.10;;
51529;SDS011;37613;51.788;21.582;2023-05-07T16:00:51;12.30;;;5.30;;
51529;SDS011;37613;51.788;21.582;2023-05-07T16:04:54;14.60;;;8.20;;
51529;SDS011;37613;51.788;21.582;2023-05-07T16:08:56;14.00;;;8.50;;
51529;SDS011;37613;51.788;21.582;2023-05-07T16:12:59;8.70;;;5.30;;
51529;SDS011;37613;51.788;21.582;2023-05-07T16:17:03;11.30;;;7.20;;
51529;SDS011;37613;51.788;21.582;2023-05-07T16:21:05;10.90;;;7.50;;
51529;SDS011;37613;51.788;21.582;2023-05-07T16:25:07;21.20;;;10.90;;
51529;SDS011;37613;51.788;21.582;2023-05-07T16:29:09;22.20;;;12.10;;
51529;SDS011;37613;51.788;21.582;2023-05-07T16:33:11;11.60;;;6.30;;
51529;SDS011;37613;51.788;21.582;2023-05-07T16:37:13;9.20;;;5.40;;
51529;SDS011;37613;51.788;21.582;2023-05-07T16:41:15;10.40;;;5.60;;
51529;SDS011;37613;51.788;21.582;2023-05-07T16:45:17;12.30;;;5.10;;
51529;SDS011;37613;51.788;21.582;2023-05-07T16:49:19;11.70;;;6.10;;
51529;SDS011;37613;51.788;21.582;2023-05-07T16:53:21;14.50;;;7.50;;
51529;SDS011;37613;51.788;21.582;2023-05-07T16:57:23;14.10;;;6.30;;
51529;SDS011;37613;51.788;21.582;2023-05-07T17:01:26;9.10;;;4.50;;
51529;SDS011;37613;51.788;21.582;2023-05-07T17:05:28;4.50;;;2.60;;
51529;SDS011;37613;51.788;21.582;2023-05-07T17:09:30;11.50;;;6.60;;
51529;SDS011;37613;51.788;21.582;2023-05-07T17:13:32;12.30;;;8.00;;
51529;SDS011;37613;51.788;21.582;2023-05-07T17:17:34;14.10;;;7.50;;
51529;SDS011;37613;51.788;21.582;2023-05-07T17:21:36;13.40;;;8.00;;
51529;SDS011;37613;51.788;21.582;2023-05-07T17:25:38;20.10;;;10.20;;
51529;SDS011;37613;51.788;21.582;2023-05-07T17:29:45;16.40;;;10.20;;
51529;SDS011;37613;51.788;21.582;2023-05-07T17:33:47;21.00;;;12.00;;
51529;SDS011;37613;51.788;21.582;2023-05-07T17:37:50;27.10;;;11.50;;
51529;SDS011;37613;51.788;21.582;2023-05-07T17:41:53;41.40;;;20.70;;
51529;SDS011;37613;51.788;21.582;2023-05-07T17:45:55;25.90;;;13.90;;
51529;SDS011;37613;51.788;21.582;2023-05-07T17:49:57;20.30;;;9.40;;
51529;SDS011;37613;51.788;21.582;2023-05-07T17:53:59;37.40;;;17.80;;
51529;SDS011;37613;51.788;21.582;2023-05-07T17:58:01;45.90;;;27.10;;
51529;SDS011;37613;51.788;21.582;2023-05-07T18:02:03;31.80;;;19.10;;
51529;SDS011;37613;51.788;21.582;2023-05-07T18:06:05;42.20;;;24.50;;
51529;SDS011;37613;51.788;21.582;2023-05-07T18:10:08;36.20;;;21.10;;
51529;SDS011;37613;51.788;21.582;2023-05-07T18:14:10;31.00;;;20.00;;
51529;SDS011;37613;51.788;21.582;2023-05-07T18:18:12;27.80;;;15.70;;
51529;SDS011;37613;51.788;21.582;2023-05-07T18:22:15;60.20;;;29.20;;
51529;SDS011;37613;51.788;21.582;2023-05-07T18:26:21;87.70;;;46.00;;
51529;SDS011;37613;51.788;21.582;2023-05-07T18:30:23;89.40;;;45.00;;
51529;SDS011;37613;51.788;21.582;2023-05-07T18:34:25;64.20;;;33.30;;
51529;SDS011;37613;51.788;21.582;2023-05-07T18:38:27;37.50;;;18.70;;
51529;SDS011;37613;51.788;21.582;2023-05-07T18:42:30;54.00;;;24.90;;
51529;SDS011;37613;51.788;21.582;2023-05-07T18:46:34;51.60;;;22.80;;
51529;SDS011;37613;51.788;21.582;2023-05-07T18:50:40;43.10;;;19.40;;
51529;SDS011;37613;51.788;21.582;2023-05-07T18:54:45;41.60;;;19.90;;
51529;SDS011;37613;51.788;21.582;2023-05-07T18:58:47;51.00;;;21.00;;
51529;SDS011;37613;51.788;21.582;2023-05-07T19:02:49;56.80;;;25.20;;
51529;SDS011;37613;51.788;21.582;2023-05-07T19:06:51;49.60;;;23.90;;
51529;SDS011;37613;51.788;21.582;2023-05-07T19:10:54;53.40;;;24.80;;
51529;SDS011;37613;51.788;21.582;2023-05-07T19:14:57;48.20;;;24.90;;
51529;SDS011;37613;51.788;21.582;2023-05-07T19:19:00;48.20;;;25.30;;
51529;SDS011;37613;51.788;21.582;2023-05-07T19:23:03;49.20;;;23.70;;
51529;SDS011;37613;51.788;21.582;2023-05-07T19:27:08;75.50;;;29.10;;
51529;SDS011;37613;51.788;21.582;2023-05-07T19:31:16;62.50;;;28.10;;
51529;SDS011;37613;51.788;21.582;2023-05-07T19:35:22;53.70;;;27.20;;
51529;SDS011;37613;51.788;21.582;2023-05-07T19:39:24;49.90;;;24.40;;
51529;SDS011;37613;51.788;21.582;2023-05-07T19:43:26;51.90;;;24.90;;
51529;SDS011;37613;51.788;21.582;2023-05-07T19:47:28;45.20;;;23.10;;
51529;SDS011;37613;51.788;21.582;2023-05-07T19:51:31;48.40;;;23.70;;
51529;SDS011;37613;51.788;21.582;2023-05-07T19:55:33;34.70;;;20.50;;
51529;SDS011;37613;51.788;21.582;2023-05-07T19:59:36;43.20;;;20.20;;
51529;SDS011;37613;51.788;21.582;2023-05-07T20:03:38;32.00;;;18.20;;
51529;SDS011;37613;51.788;21.582;2023-05-07T20:07:41;33.50;;;18.10;;
51529;SDS011;37613;51.788;21.582;2023-05-07T20:11:43;27.20;;;16.50;;
51529;SDS011;37613;51.788;21.582;2023-05-07T20:15:45;22.60;;;11.70;;
51529;SDS011;37613;51.788;21.582;2023-05-07T20:19:49;22.30;;;12.90;;
51529;SDS011;37613;51.788;21.582;2023-05-07T20:23:51;19.20;;;10.90;;
51529;SDS011;37613;51.788;21.582;2023-05-07T20:27:53;21.70;;;11.90;;
51529;SDS011;37613;51.788;21.582;2023-05-07T20:31:58;17.40;;;10.60;;
51529;SDS011;37613;51.788;21.582;2023-05-07T20:36:06;16.80;;;9.90;;
51529;SDS011;37613;51.788;21.582;2023-05-07T20:40:09;17.20;;;9.70;;
51529;SDS011;37613;51.788;21.582;2023-05-07T20:44:11;17.00;;;8.90;;
51529;SDS011;37613;51.788;21.582;2023-05-07T20:48:13;12.60;;;8.20;;
51529;SDS011;37613;51.788;21.582;2023-05-07T20:52:15;16.50;;;8.90;;
51529;SDS011;37613;51.788;21.582;2023-05-07T20:56:20;15.20;;;8.10;;
51529;SDS011;37613;51.788;21.582;2023-05-07T21:00:23;10.10;;;6.40;;
51529;SDS011;37613;51.788;21.582;2023-05-07T21:04:25;17.30;;;9.50;;
51529;SDS011;37613;51.788;21.582;2023-05-07T21:08:27;16.40;;;9.90;;
51529;SDS011;37613;51.788;21.582;2023-05-07T21:12:29;24.20;;;13.90;;
51529;SDS011;37613;51.788;21.582;2023-05-07T21:16:31;18.10;;;9.90;;
51529;SDS011;37613;51.788;21.582;2023-05-07T21:20:33;44.80;;;21.00;;
51529;SDS011;37613;51.788;21.582;2023-05-07T21:24:38;55.20;;;26.70;;
51529;SDS011;37613;51.788;21.582;2023-05-07T21:28:41;35.00;;;16.80;;
51529;SDS011;37613;51.788;21.582;2023-05-07T21:32:43;39.40;;;18.80;;
51529;SDS011;37613;51.788;21.582;2023-05-07T21:36:49;32.30;;;18.50;;
51529;SDS011;37613;51.788;21.582;2023-05-07T21:40:51;26.10;;;15.30;;
51529;SDS011;37613;51.788;21.582;2023-05-07T21:44:59;21.90;;;13.00;;
51529;SDS011;37613;51.788;21.582;2023-05-07T21:49:01;20.00;;;11.30;;
51529;SDS011;37613;51.788;21.582;2023-05-07T21:53:03;21.60;;;11.10;;
51529;SDS011;37613;51.788;21.582;2023-05-07T21:57:05;19.50;;;11.10;;
51529;SDS011;37613;51.788;21.582;2023-05-07T22:01:07;18.50;;;10.00;;
51529;SDS011;37613;51.788;21.582;2023-05-07T22:05:12;20.40;;;9.80;;
51529;SDS011;37613;51.788;21.582;2023-05-07T22:09:17;20.30;;;10.40;;
51529;SDS011;37613;51.788;21.582;2023-05-07T22:13:19;19.60;;;11.20;;
51529;SDS011;37613;51.788;21.582;2023-05-07T22:17:21;15.40;;;9.40;;
51529;SDS011;37613;51.788;21.582;2023-05-07T22:25:30;24.70;;;14.20;;
51529;SDS011;37613;51.788;21.582;2023-05-07T22:29:33;21.30;;;10.70;;
51529;SDS011;37613;51.788;21.582;2023-05-07T22:33:39;19.00;;;9.30;;
51529;SDS011;37613;51.788;21.582;2023-05-07T22:37:40;18.70;;;10.10;;
51529;SDS011;37613;51.788;21.582;2023-05-07T22:41:43;13.50;;;7.90;;
51529;SDS011;37613;51.788;21.582;2023-05-07T22:45:45;21.30;;;10.30;;
51529;SDS011;37613;51.788;21.582;2023-05-07T22:49:47;15.30;;;8.30;;
51529;SDS011;37613;51.788;21.582;2023-05-07T22:53:49;19.30;;;10.50;;
51529;SDS011;37613;51.788;21.582;2023-05-07T22:57:51;11.80;;;7.10;;
51529;SDS011;37613;51.788;21.582;2023-05-07T23:01:53;10.10;;;6.40;;
51529;SDS011;37613;51.788;21.582;2023-05-07T23:05:55;12.60;;;6.50;;
51529;SDS011;37613;51.788;21.582;2023-05-07T23:10:00;13.50;;;6.80;;
51529;SDS011;37613;51.788;21.582;2023-05-07T23:14:17;9.10;;;5.90;;
51529;SDS011;37613;51.788;21.582;2023-05-07T23:18:19;8.10;;;6.10;;
51529;SDS011;37613;51.788;21.582;2023-05-07T23:22:21;14.00;;;7.30;;
51529;SDS011;37613;51.788;21.582;2023-05-07T23:26:26;7.10;;;5.60;;
51529;SDS011;37613;51.788;21.582;2023-05-07T23:30:31;5.40;;;4.30;;
51529;SDS011;37613;51.788;21.582;2023-05-07T23:34:33;9.30;;;6.60;;
51529;SDS011;37613;51.788;21.582;2023-05-07T23:38:35;8.50;;;5.30;;
51529;SDS011;37613;51.788;21.582;2023-05-07T23:42:37;13.50;;;8.70;;
51529;SDS011;37613;51.788;21.582;2023-05-07T23:46:39;19.40;;;11.40;;
51529;SDS011;37613;51.788;21.582;2023-05-07T23:50:41;13.70;;;7.40;;
51529;SDS011;37613;51.788;21.582;2023-05-07T23:54:43;11.50;;;6.40;;
51529;SDS011;37613;51.788;21.582;2023-05-07T23:58:45;8.60;;;5.10;;
